createdAt,value
2018-09-09T00:00:33.485Z,101510.75
2018-09-09T00:01:38.929Z,101515.07
2018-09-09T00:02:44.427Z,101516.66
2018-09-09T00:03:49.855Z,101508.36
2018-09-09T00:04:55.289Z,101510.48
2018-09-09T00:06:00.746Z,101514.34
2018-09-09T00:07:06.836Z,101514.66
2018-09-09T00:08:12.281Z,101510.78
2018-09-09T00:09:22.993Z,101514.08
2018-09-09T00:10:28.434Z,101516.44
2018-09-09T00:11:33.905Z,101510.36
2018-09-09T00:12:39.431Z,101517.53
2018-09-09T00:13:44.948Z,101516.17
2018-09-09T00:14:50.676Z,101511.84
2018-09-09T00:15:56.137Z,101510.81
2018-09-09T00:17:01.549Z,101513.02
2018-09-09T00:18:07.101Z,101510.81
2018-09-09T00:19:12.509Z,101515.97
2018-09-09T00:20:18.018Z,101514.61
2018-09-09T00:21:23.441Z,101512.11
2018-09-09T00:22:28.864Z,101512.11
2018-09-09T00:23:34.314Z,101509.41
2018-09-09T00:24:39.769Z,101509.75
2018-09-09T00:25:45.234Z,101505.76
2018-09-09T00:26:50.845Z,101508.00
2018-09-09T00:27:56.285Z,101503.97
2018-09-09T00:29:01.660Z,101506.55
2018-09-09T00:30:07.769Z,101506.84
2018-09-09T00:31:13.324Z,101501.98
2018-09-09T00:32:18.791Z,101503.85
2018-09-09T00:33:24.214Z,101508.89
2018-09-09T00:34:29.612Z,101508.77
2018-09-09T00:35:35.146Z,101508.77
2018-09-09T00:36:40.608Z,101511.80
2018-09-09T00:37:46.025Z,101511.80
2018-09-09T00:38:51.430Z,101513.09
2018-09-09T00:39:56.879Z,101510.98
2018-09-09T00:41:02.320Z,101515.34
2018-09-09T00:42:07.853Z,101510.18
2018-09-09T00:43:13.606Z,101509.27
2018-09-09T00:44:19.109Z,101512.77
2018-09-09T00:45:24.796Z,101512.77
2018-09-09T00:46:30.282Z,101507.19
2018-09-09T00:47:35.816Z,101506.39
2018-09-09T00:48:41.337Z,101507.19
2018-09-09T00:49:51.893Z,101506.84
2018-09-09T00:51:02.513Z,101510.52
2018-09-09T00:52:13.201Z,101504.36
2018-09-09T00:53:49.314Z,101503.82
2018-09-09T00:54:54.757Z,101503.52
2018-09-09T00:56:00.157Z,101502.11
2018-09-09T00:57:05.588Z,101504.66
2018-09-09T00:58:10.965Z,101498.57
2018-09-09T00:59:16.392Z,101500.16
2018-09-09T01:00:26.789Z,101507.45
2018-09-09T01:01:32.238Z,101506.61
2018-09-09T01:02:37.660Z,101504.83
2018-09-09T01:03:43.040Z,101509.19
2018-09-09T01:04:48.582Z,101503.15
2018-09-09T01:05:54.390Z,101513.86
2018-09-09T01:06:59.860Z,101507.91
2018-09-09T01:08:05.343Z,101508.98
2018-09-09T01:09:11.756Z,101503.98
2018-09-09T01:10:17.164Z,101497.36
2018-09-09T01:11:22.576Z,101504.70
2018-09-09T01:12:28.033Z,101500.90
2018-09-09T01:13:33.423Z,101501.40
2018-09-09T01:14:38.870Z,101494.12
2018-09-09T01:15:44.686Z,101504.02
2018-09-09T01:16:50.128Z,101496.95
2018-09-09T01:17:55.573Z,101499.86
2018-09-09T01:19:01.164Z,101501.94
2018-09-09T01:20:06.636Z,101503.36
2018-09-09T01:21:12.429Z,101507.68
2018-09-09T01:22:17.840Z,101502.48
2018-09-09T01:23:23.312Z,101505.22
2018-09-09T01:24:28.695Z,101499.94
2018-09-09T01:25:34.183Z,101499.86
2018-09-09T01:26:39.875Z,101502.30
2018-09-09T01:27:45.262Z,101504.36
2018-09-09T01:28:50.681Z,101503.75
2018-09-09T01:29:56.093Z,101509.21
2018-09-09T01:31:01.480Z,101504.05
2018-09-09T01:32:07.020Z,101508.45
2018-09-09T01:33:12.494Z,101511.16
2018-09-09T01:34:17.892Z,101510.66
2018-09-09T01:35:23.284Z,101508.88
2018-09-09T01:36:28.661Z,101515.78
2018-09-09T01:37:34.261Z,101512.03
2018-09-09T01:38:39.728Z,101517.61
2018-09-09T01:39:45.177Z,101518.44
2018-09-09T01:40:50.656Z,101516.98
2018-09-09T01:41:56.180Z,101519.61
2018-09-09T01:43:01.824Z,101517.53
2018-09-09T01:44:07.585Z,101519.99
2018-09-09T01:45:13.035Z,101513.95
2018-09-09T01:46:18.577Z,101517.53
2018-09-09T01:47:24.436Z,101515.28
2018-09-09T01:48:29.896Z,101519.61
2018-09-09T01:49:35.304Z,101513.95
2018-09-09T01:50:40.757Z,101512.13
2018-09-09T01:51:46.214Z,101513.50
2018-09-09T01:52:51.625Z,101506.79
2018-09-09T01:53:57.144Z,101509.03
2018-09-09T01:55:02.589Z,101512.75
2018-09-09T01:56:08.080Z,101513.16
2018-09-09T01:57:13.524Z,101514.49
2018-09-09T01:58:18.912Z,101508.84
2018-09-09T01:59:24.378Z,101506.95
2018-09-09T02:00:29.884Z,101509.15
2018-09-09T02:01:35.352Z,101507.48
2018-09-09T02:02:40.809Z,101503.61
2018-09-09T02:03:46.273Z,101505.02
2018-09-09T02:04:51.686Z,101513.66
2018-09-09T02:05:57.090Z,101512.18
2018-09-09T02:07:02.872Z,101509.68
2018-09-09T02:08:08.280Z,101514.72
2018-09-09T02:09:13.669Z,101509.94
2018-09-09T02:10:19.141Z,101513.39
2018-09-09T02:11:24.585Z,101513.89
2018-09-09T02:12:30.008Z,101515.48
2018-09-09T02:13:52.589Z,101519.77
2018-09-09T02:15:01.764Z,101514.15
2018-09-09T02:16:07.257Z,101524.77
2018-09-09T02:17:12.738Z,101523.03
2018-09-09T02:18:18.158Z,101517.53
2018-09-09T02:19:23.557Z,101518.44
2018-09-09T02:20:29.402Z,101514.57
2018-09-09T02:21:34.828Z,101511.16
2018-09-09T02:22:40.265Z,101512.33
2018-09-09T02:23:45.657Z,101512.86
2018-09-09T02:24:51.094Z,101513.32
2018-09-09T02:25:56.592Z,101518.81
2018-09-09T02:27:01.952Z,101512.21
2018-09-09T02:28:07.434Z,101510.20
2018-09-09T02:29:12.870Z,101511.45
2018-09-09T02:30:18.317Z,101515.66
2018-09-09T02:31:23.807Z,101516.53
2018-09-09T02:32:29.309Z,101513.39
2018-09-09T02:33:34.708Z,101515.44
2018-09-09T02:34:40.088Z,101517.11
2018-09-09T02:35:45.491Z,101510.96
2018-09-09T02:36:51.049Z,101507.16
2018-09-09T02:37:56.441Z,101509.11
2018-09-09T02:39:01.896Z,101503.83
2018-09-09T02:40:07.397Z,101502.16
2018-09-09T02:41:12.801Z,101504.25
2018-09-09T02:42:18.204Z,101500.16
2018-09-09T02:43:23.601Z,101501.82
2018-09-09T02:44:29.061Z,101499.13
2018-09-09T02:45:34.581Z,101501.25
2018-09-09T02:46:40.028Z,101499.42
2018-09-09T02:47:45.592Z,101495.84
2018-09-09T02:48:51.018Z,101495.59
2018-09-09T02:49:56.496Z,101492.02
2018-09-09T02:51:02.006Z,101493.73
2018-09-09T02:52:07.478Z,101495.48
2018-09-09T02:53:12.941Z,101497.09
2018-09-09T02:54:18.380Z,101497.18
2018-09-09T02:55:23.887Z,101498.02
2018-09-09T02:56:29.277Z,101502.13
2018-09-09T02:57:34.684Z,101502.95
2018-09-09T02:58:40.136Z,101504.74
2018-09-09T02:59:45.589Z,101500.42
2018-09-09T03:00:51.074Z,101506.75
2018-09-09T03:01:56.466Z,101502.42
2018-09-09T03:03:01.870Z,101505.95
2018-09-09T03:04:07.633Z,101508.45
2018-09-09T03:05:13.238Z,101509.03
2018-09-09T03:06:19.153Z,101516.73
2018-09-09T03:07:24.588Z,101512.03
2018-09-09T03:08:30.024Z,101515.22
2018-09-09T03:09:35.499Z,101515.22
2018-09-09T03:10:40.894Z,101511.73
2018-09-09T03:11:46.339Z,101512.41
2018-09-09T03:12:51.770Z,101512.41
2018-09-09T03:13:57.289Z,101509.82
2018-09-09T03:15:02.775Z,101507.70
2018-09-09T03:16:08.373Z,101506.08
2018-09-09T03:17:13.836Z,101503.67
2018-09-09T03:18:19.252Z,101504.09
2018-09-09T03:19:24.674Z,101498.89
2018-09-09T03:20:30.076Z,101505.68
2018-09-09T03:21:35.615Z,101501.31
2018-09-09T03:22:41.062Z,101502.48
2018-09-09T03:23:46.696Z,101495.98
2018-09-09T03:24:52.101Z,101495.98
2018-09-09T03:25:57.641Z,101487.03
2018-09-09T03:27:03.054Z,101488.63
2018-09-09T03:28:08.485Z,101490.70
2018-09-09T03:29:13.888Z,101491.16
2018-09-09T03:30:19.373Z,101490.66
2018-09-09T03:31:24.817Z,101490.45
2018-09-09T03:32:30.233Z,101485.59
2018-09-09T03:33:35.757Z,101492.44
2018-09-09T03:34:41.210Z,101480.25
2018-09-09T03:35:46.680Z,101485.00
2018-09-09T03:36:56.420Z,101480.29
2018-09-09T03:38:01.796Z,101491.45
2018-09-09T03:39:09.897Z,101486.70
2018-09-09T03:40:15.441Z,101493.87
2018-09-09T03:41:20.850Z,101499.03
2018-09-09T03:42:26.275Z,101500.23
2018-09-09T03:43:31.708Z,101500.23
2018-09-09T03:44:37.098Z,101501.08
2018-09-09T03:45:42.649Z,101497.48
2018-09-09T03:46:48.512Z,101500.52
2018-09-09T03:47:54.190Z,101500.93
2018-09-09T03:48:59.629Z,101501.39
2018-09-09T03:50:05.190Z,101502.22
2018-09-09T03:51:10.657Z,101505.68
2018-09-09T03:52:16.085Z,101505.64
2018-09-09T03:53:21.560Z,101496.19
2018-09-09T03:54:26.964Z,101493.66
2018-09-09T03:55:32.454Z,101500.22
2018-09-09T03:56:38.329Z,101496.84
2018-09-09T03:57:43.792Z,101499.42
2018-09-09T03:58:49.541Z,101502.28
2018-09-09T03:59:54.980Z,101498.07
2018-09-09T04:01:00.535Z,101499.78
2018-09-09T04:02:06.557Z,101502.73
2018-09-09T04:03:12.003Z,101498.48
2018-09-09T04:04:17.456Z,101504.89
2018-09-09T04:05:22.905Z,101507.63
2018-09-09T04:06:28.361Z,101515.79
2018-09-09T04:07:33.743Z,101516.81
2018-09-09T04:08:39.164Z,101510.94
2018-09-09T04:09:44.584Z,101510.22
2018-09-09T04:10:50.305Z,101510.17
2018-09-09T04:11:55.745Z,101508.73
2018-09-09T04:13:01.176Z,101510.52
2018-09-09T04:14:06.852Z,101509.98
2018-09-09T04:15:12.257Z,101509.72
2018-09-09T04:16:17.694Z,101513.06
2018-09-09T04:17:23.153Z,101513.47
2018-09-09T04:18:28.772Z,101511.84
2018-09-09T04:19:34.315Z,101507.52
2018-09-09T04:20:39.730Z,101512.14
2018-09-09T04:21:49.817Z,101512.08
2018-09-09T04:22:55.276Z,101506.53
2018-09-09T04:24:00.749Z,101513.47
2018-09-09T04:25:06.229Z,101512.98
2018-09-09T04:26:11.700Z,101505.59
2018-09-09T04:27:17.116Z,101503.42
2018-09-09T04:28:22.517Z,101507.75
2018-09-09T04:29:27.938Z,101511.62
2018-09-09T04:30:33.466Z,101508.28
2018-09-09T04:31:38.884Z,101513.44
2018-09-09T04:32:44.284Z,101512.91
2018-09-09T04:33:50.105Z,101507.86
2018-09-09T04:34:55.605Z,101512.80
2018-09-09T04:36:01.068Z,101512.75
2018-09-09T04:37:06.500Z,101517.38
2018-09-09T04:38:11.898Z,101519.02
2018-09-09T04:39:17.373Z,101518.18
2018-09-09T04:40:22.871Z,101515.56
2018-09-09T04:41:28.266Z,101517.16
2018-09-09T04:42:33.723Z,101511.95
2018-09-09T04:43:39.154Z,101514.95
2018-09-09T04:44:44.893Z,101517.53
2018-09-09T04:45:50.318Z,101515.37
2018-09-09T04:46:55.768Z,101514.58
2018-09-09T04:48:01.502Z,101516.28
2018-09-09T04:49:07.517Z,101515.41
2018-09-09T04:50:12.981Z,101520.98
2018-09-09T04:51:18.473Z,101524.73
2018-09-09T04:52:23.889Z,101521.25
2018-09-09T04:53:29.302Z,101528.12
2018-09-09T04:54:34.744Z,101527.70
2018-09-09T04:55:40.280Z,101530.20
2018-09-09T04:56:45.680Z,101538.73
2018-09-09T04:57:51.152Z,101538.29
2018-09-09T04:58:56.626Z,101541.28
2018-09-09T05:00:02.054Z,101537.30
2018-09-09T05:01:07.500Z,101536.77
2018-09-09T05:02:12.921Z,101538.52
2018-09-09T05:03:18.305Z,101537.22
2018-09-09T05:04:23.853Z,101540.25
2018-09-09T05:05:29.685Z,101540.59
2018-09-09T05:06:35.145Z,101538.02
2018-09-09T05:07:40.576Z,101536.23
2018-09-09T05:08:46.023Z,101540.11
2018-09-09T05:09:51.436Z,101540.06
2018-09-09T05:10:56.941Z,101536.56
2018-09-09T05:12:02.424Z,101539.53
2018-09-09T05:13:08.085Z,101539.57
2018-09-09T05:14:13.521Z,101538.66
2018-09-09T05:15:18.996Z,101540.33
2018-09-09T05:16:24.466Z,101538.58
2018-09-09T05:17:29.853Z,101543.62
2018-09-09T05:18:35.305Z,101545.32
2018-09-09T05:19:40.857Z,101547.91
2018-09-09T05:20:46.317Z,101545.63
2018-09-09T05:21:51.776Z,101552.45
2018-09-09T05:22:57.166Z,101551.50
2018-09-09T05:24:02.664Z,101552.67
2018-09-09T05:25:08.129Z,101546.13
2018-09-09T05:26:13.551Z,101544.80
2018-09-09T05:27:19.396Z,101546.59
2018-09-09T05:28:24.811Z,101552.89
2018-09-09T05:29:30.190Z,101551.52
2018-09-09T05:30:35.584Z,101550.05
2018-09-09T05:31:40.961Z,101545.61
2018-09-09T05:32:46.436Z,101554.77
2018-09-09T05:33:51.969Z,101552.94
2018-09-09T05:34:57.540Z,101560.09
2018-09-09T05:36:02.960Z,101559.94
2018-09-09T05:37:08.389Z,101566.81
2018-09-09T05:38:13.853Z,101564.61
2018-09-09T05:39:19.345Z,101565.86
2018-09-09T05:40:24.916Z,101567.52
2018-09-09T05:41:30.340Z,101566.98
2018-09-09T05:42:35.746Z,101563.44
2018-09-09T05:43:41.348Z,101570.14
2018-09-09T05:44:46.866Z,101570.64
2018-09-09T05:45:52.284Z,101572.77
2018-09-09T05:46:57.695Z,101574.94
2018-09-09T05:48:03.356Z,101570.73
2018-09-09T05:49:09.115Z,101572.14
2018-09-09T05:50:14.599Z,101566.06
2018-09-09T05:51:20.011Z,101562.02
2018-09-09T05:52:25.397Z,101564.43
2018-09-09T05:53:30.848Z,101559.59
2018-09-09T05:54:36.321Z,101557.97
2018-09-09T05:55:41.837Z,101559.81
2018-09-09T05:56:47.231Z,101561.34
2018-09-09T05:57:52.890Z,101559.92
2018-09-09T05:58:58.340Z,101562.89
2018-09-09T06:00:03.834Z,101561.50
2018-09-09T06:01:09.306Z,101570.09
2018-09-09T06:02:14.715Z,101568.25
2018-09-09T06:03:20.321Z,101573.14
2018-09-09T06:04:25.820Z,101569.21
2018-09-09T06:05:31.278Z,101573.97
2018-09-09T06:06:36.769Z,101571.30
2018-09-09T06:07:42.277Z,101570.20
2018-09-09T06:08:47.741Z,101576.16
2018-09-09T06:09:53.161Z,101571.20
2018-09-09T06:10:58.578Z,101566.09
2018-09-09T06:12:04.095Z,101569.41
2018-09-09T06:13:09.475Z,101575.97
2018-09-09T06:14:14.920Z,101579.38
2018-09-09T06:15:20.481Z,101578.50
2018-09-09T06:16:25.988Z,101577.50
2018-09-09T06:17:31.560Z,101581.79
2018-09-09T06:18:37.047Z,101592.65
2018-09-09T06:19:43.008Z,101598.61
2018-09-09T06:20:48.476Z,101589.94
2018-09-09T06:21:53.874Z,101581.14
2018-09-09T06:22:59.333Z,101585.60
2018-09-09T06:24:04.752Z,101582.59
2018-09-09T06:25:10.265Z,101579.38
2018-09-09T06:26:15.668Z,101586.55
2018-09-09T06:27:21.109Z,101583.70
2018-09-09T06:28:26.493Z,101577.06
2018-09-09T06:29:32.003Z,101583.52
2018-09-09T06:30:37.449Z,101586.11
2018-09-09T06:31:42.912Z,101583.30
2018-09-09T06:32:48.354Z,101583.95
2018-09-09T06:33:54.142Z,101588.52
2018-09-09T06:34:59.491Z,101582.16
2018-09-09T06:36:04.972Z,101578.74
2018-09-09T06:37:10.384Z,101573.38
2018-09-09T06:38:15.802Z,101581.52
2018-09-09T06:39:21.245Z,101578.38
2018-09-09T06:40:26.774Z,101579.39
2018-09-09T06:41:32.678Z,101582.90
2018-09-09T06:42:38.080Z,101579.75
2018-09-09T06:43:43.468Z,101580.86
2018-09-09T06:44:48.866Z,101582.66
2018-09-09T06:45:54.304Z,101584.19
2018-09-09T06:46:59.704Z,101579.75
2018-09-09T06:48:05.230Z,101582.85
2018-09-09T06:49:10.717Z,101584.23
2018-09-09T06:50:16.335Z,101588.68
2018-09-09T06:51:21.928Z,101593.89
2018-09-09T06:52:27.304Z,101594.75
2018-09-09T06:53:32.805Z,101597.01
2018-09-09T06:54:38.260Z,101601.80
2018-09-09T06:55:43.668Z,101600.63
2018-09-09T06:56:49.106Z,101601.88
2018-09-09T06:57:54.506Z,101599.97
2018-09-09T06:59:00.021Z,101596.62
2018-09-09T07:00:05.611Z,101598.64
2018-09-09T07:01:11.064Z,101597.30
2018-09-09T07:02:16.468Z,101597.30
2018-09-09T07:03:21.874Z,101596.83
2018-09-09T07:04:27.436Z,101594.03
2018-09-09T07:05:32.963Z,101594.97
2018-09-09T07:06:38.436Z,101597.39
2018-09-09T07:07:43.871Z,101601.50
2018-09-09T07:08:49.344Z,101597.50
2018-09-09T07:09:54.717Z,101599.52
2018-09-09T07:11:00.598Z,101600.19
2018-09-09T07:12:05.948Z,101598.38
2018-09-09T07:13:11.420Z,101594.95
2018-09-09T07:14:16.877Z,101590.24
2018-09-09T07:15:22.254Z,101598.84
2018-09-09T07:16:27.728Z,101601.12
2018-09-09T07:17:33.116Z,101596.05
2018-09-09T07:18:38.770Z,101595.05
2018-09-09T07:19:44.192Z,101598.23
2018-09-09T07:20:49.610Z,101597.39
2018-09-09T07:21:55.088Z,101601.66
2018-09-09T07:23:00.525Z,101594.48
2018-09-09T07:24:05.986Z,101589.25
2018-09-09T07:25:11.459Z,101591.64
2018-09-09T07:26:16.942Z,101592.05
2018-09-09T07:27:23.413Z,101591.71
2018-09-09T07:28:28.823Z,101595.83
2018-09-09T07:29:34.252Z,101591.27
2018-09-09T07:30:39.656Z,101589.26
2018-09-09T07:31:45.069Z,101591.91
2018-09-09T07:32:50.582Z,101598.53
2018-09-09T07:33:55.989Z,101596.14
2018-09-09T07:35:01.445Z,101598.63
2018-09-09T07:36:06.936Z,101596.29
2018-09-09T07:37:12.375Z,101603.23
2018-09-09T07:38:17.933Z,101603.78
2018-09-09T07:39:23.354Z,101611.02
2018-09-09T07:40:28.798Z,101606.03
2018-09-09T07:41:34.262Z,101607.97
2018-09-09T07:42:39.933Z,101613.03
2018-09-09T07:43:45.356Z,101612.08
2018-09-09T07:44:50.769Z,101606.05
2018-09-09T07:45:56.264Z,101612.97
2018-09-09T07:47:01.781Z,101604.80
2018-09-09T07:48:07.934Z,101611.42
2018-09-09T07:49:13.396Z,101609.95
2018-09-09T07:50:18.844Z,101604.30
2018-09-09T07:51:24.688Z,101604.14
2018-09-09T07:52:30.128Z,101601.73
2018-09-09T07:53:35.545Z,101600.52
2018-09-09T07:54:40.969Z,101600.58
2018-09-09T07:55:46.396Z,101601.73
2018-09-09T07:56:51.897Z,101605.19
2018-09-09T07:57:57.345Z,101610.27
2018-09-09T07:59:02.803Z,101611.10
2018-09-09T08:00:08.869Z,101606.44
2018-09-09T08:01:14.316Z,101608.68
2018-09-09T08:02:19.805Z,101604.13
2018-09-09T08:03:25.265Z,101607.33
2018-09-09T08:04:30.700Z,101607.78
2018-09-09T08:05:36.138Z,101606.83
2018-09-09T08:06:41.620Z,101603.44
2018-09-09T08:07:47.086Z,101612.78
2018-09-09T08:08:53.659Z,101607.72
2018-09-09T08:09:59.277Z,101604.64
2018-09-09T08:11:04.713Z,101610.58
2018-09-09T08:12:10.130Z,101608.84
2018-09-09T08:13:15.577Z,101607.73
2018-09-09T08:14:21.046Z,101611.63
2018-09-09T08:15:26.522Z,101615.47
2018-09-09T08:16:31.905Z,101611.88
2018-09-09T08:17:37.323Z,101617.20
2018-09-09T08:18:42.796Z,101612.06
2018-09-09T08:19:48.273Z,101611.88
2018-09-09T08:20:53.668Z,101614.91
2018-09-09T08:21:59.116Z,101614.32
2018-09-09T08:23:04.601Z,101618.09
2018-09-09T08:24:10.093Z,101617.63
2018-09-09T08:25:15.681Z,101619.11
2018-09-09T08:26:21.226Z,101616.30
2018-09-09T08:27:26.604Z,101615.88
2018-09-09T08:28:32.382Z,101615.30
2018-09-09T08:29:38.222Z,101616.77
2018-09-09T08:30:44.049Z,101611.75
2018-09-09T08:31:49.513Z,101612.08
2018-09-09T08:32:55.150Z,101614.16
2018-09-09T08:34:00.593Z,101622.02
2018-09-09T08:35:06.058Z,101615.75
2018-09-09T08:36:11.911Z,101616.11
2018-09-09T08:37:17.344Z,101620.84
2018-09-09T08:38:22.749Z,101620.77
2018-09-09T08:39:28.156Z,101619.31
2018-09-09T08:40:33.586Z,101631.06
2018-09-09T08:41:39.509Z,101625.67
2018-09-09T08:42:45.197Z,101624.55
2018-09-09T08:43:50.946Z,101621.19
2018-09-09T08:44:56.845Z,101619.87
2018-09-09T08:46:02.500Z,101623.02
2018-09-09T08:47:08.753Z,101619.63
2018-09-09T08:48:14.813Z,101616.56
2018-09-09T08:49:20.285Z,101617.45
2018-09-09T08:50:25.724Z,101618.24
2018-09-09T08:51:31.186Z,101615.05
2018-09-09T08:52:36.648Z,101618.20
2018-09-09T08:53:42.528Z,101612.16
2018-09-09T08:54:48.083Z,101623.62
2018-09-09T08:55:53.472Z,101612.52
2018-09-09T08:56:59.080Z,101619.83
2018-09-09T08:58:04.590Z,101612.45
2018-09-09T08:59:10.352Z,101615.23
2018-09-09T09:00:15.985Z,101613.88
2018-09-09T09:01:21.600Z,101612.75
2018-09-09T09:02:27.436Z,101611.16
2018-09-09T09:03:33.032Z,101616.37
2018-09-09T09:04:38.468Z,101616.35
2018-09-09T09:05:43.930Z,101614.09
2018-09-09T09:06:49.332Z,101619.70
2018-09-09T09:07:54.799Z,101619.34
2018-09-09T09:09:00.248Z,101620.44
2018-09-09T09:10:06.157Z,101618.14
2018-09-09T09:11:11.653Z,101615.11
2018-09-09T09:12:17.104Z,101621.84
2018-09-09T09:13:22.556Z,101619.77
2018-09-09T09:14:28.049Z,101620.78
2018-09-09T09:15:33.764Z,101619.55
2018-09-09T09:16:39.338Z,101611.23
2018-09-09T09:17:44.962Z,101610.10
2018-09-09T09:18:51.074Z,101615.66
2018-09-09T09:19:56.696Z,101615.08
2018-09-09T09:21:02.526Z,101616.27
2018-09-09T09:22:08.513Z,101618.70
2018-09-09T09:23:14.149Z,101615.64
2018-09-09T09:24:20.366Z,101615.90
2018-09-09T09:25:25.976Z,101620.17
2018-09-09T09:26:31.853Z,101618.80
2018-09-09T09:27:37.484Z,101621.02
2018-09-09T09:28:43.186Z,101620.08
2018-09-09T09:29:53.886Z,101616.52
2018-09-09T09:30:59.788Z,101619.95
2018-09-09T09:32:05.778Z,101623.06
2018-09-09T09:33:11.491Z,101620.30
2018-09-09T09:34:17.352Z,101614.81
2018-09-09T09:35:26.882Z,101619.02
2018-09-09T09:36:32.774Z,101618.02
2018-09-09T09:37:38.577Z,101616.53
2018-09-09T09:38:44.130Z,101615.63
2018-09-09T09:39:49.645Z,101615.53
2018-09-09T09:40:55.280Z,101608.89
2018-09-09T09:42:01.054Z,101608.00
2018-09-09T09:43:06.973Z,101610.73
2018-09-09T09:44:12.582Z,101618.77
2018-09-09T09:45:18.300Z,101613.17
2018-09-09T09:46:23.934Z,101614.81
2018-09-09T09:47:29.690Z,101613.63
2018-09-09T09:48:35.380Z,101615.30
2018-09-09T09:49:41.159Z,101612.66
2018-09-09T09:50:46.940Z,101609.09
2018-09-09T09:51:52.635Z,101618.19
2018-09-09T09:52:58.233Z,101611.81
2018-09-09T09:54:04.036Z,101612.73
2018-09-09T09:55:10.083Z,101617.94
2018-09-09T09:56:15.870Z,101614.26
2018-09-09T09:57:21.569Z,101614.08
2018-09-09T09:58:27.505Z,101608.12
2018-09-09T09:59:32.953Z,101621.00
2018-09-09T10:00:43.517Z,101615.05
2018-09-09T10:01:49.282Z,101622.03
2018-09-09T10:02:54.870Z,101619.55
2018-09-09T10:04:00.658Z,101616.82
2018-09-09T10:05:06.607Z,101617.28
2018-09-09T10:06:12.324Z,101620.16
2018-09-09T10:07:18.745Z,101615.79
2018-09-09T10:08:24.838Z,101623.69
2018-09-09T10:09:30.487Z,101620.70
2018-09-09T10:10:36.060Z,101622.67
2018-09-09T10:11:41.680Z,101622.43
2018-09-09T10:12:47.381Z,101620.95
2018-09-09T10:13:52.894Z,101617.23
2018-09-09T10:14:58.636Z,101619.86
2018-09-09T10:16:04.167Z,101612.77
2018-09-09T10:17:09.698Z,101618.86
2018-09-09T10:18:15.516Z,101620.16
2018-09-09T10:19:21.644Z,101621.76
2018-09-09T10:20:27.226Z,101620.18
2018-09-09T10:21:32.660Z,101624.52
2018-09-09T10:22:38.098Z,101623.55
2018-09-09T10:23:43.679Z,101621.34
2018-09-09T10:24:49.249Z,101621.37
2018-09-09T10:25:54.900Z,101623.66
2018-09-09T10:27:00.512Z,101624.58
2018-09-09T10:28:06.381Z,101620.48
2018-09-09T10:29:11.765Z,101627.25
2018-09-09T10:30:17.265Z,101618.48
2018-09-09T10:31:22.857Z,101615.33
2018-09-09T10:32:28.617Z,101622.92
2018-09-09T10:33:34.095Z,101621.88
2018-09-09T10:34:39.547Z,101629.26
2018-09-09T10:35:45.033Z,101624.73
2018-09-09T10:36:50.628Z,101623.34
2018-09-09T10:37:56.020Z,101627.91
2018-09-09T10:39:01.705Z,101630.44
2018-09-09T10:40:07.776Z,101630.92
2018-09-09T10:41:13.685Z,101633.32
2018-09-09T10:42:19.626Z,101634.84
2018-09-09T10:43:25.293Z,101634.72
2018-09-09T10:44:30.881Z,101638.19
2018-09-09T10:45:36.616Z,101643.90
2018-09-09T10:46:42.343Z,101638.62
2018-09-09T10:47:48.017Z,101633.63
2018-09-09T10:48:53.714Z,101636.34
2018-09-09T10:49:59.492Z,101635.44
2018-09-09T10:51:04.978Z,101638.50
2018-09-09T10:52:10.406Z,101641.36
2018-09-09T10:53:16.201Z,101643.37
2018-09-09T10:54:21.862Z,101640.98
2018-09-09T10:55:27.596Z,101640.77
2018-09-09T10:56:33.288Z,101648.28
2018-09-09T10:57:38.865Z,101647.73
2018-09-09T10:58:44.536Z,101642.31
2018-09-09T10:59:50.106Z,101639.05
2018-09-09T11:00:55.877Z,101643.85
2018-09-09T11:02:01.322Z,101650.87
2018-09-09T11:03:06.812Z,101643.22
2018-09-09T11:04:12.614Z,101644.08
2018-09-09T11:05:18.001Z,101640.81
2018-09-09T11:06:23.450Z,101640.41
2018-09-09T11:07:28.868Z,101641.44
2018-09-09T11:08:34.522Z,101649.48
2018-09-09T11:09:40.214Z,101643.50
2018-09-09T11:10:46.498Z,101644.80
2018-09-09T11:11:52.166Z,101644.97
2018-09-09T11:12:57.750Z,101644.95
2018-09-09T11:14:03.238Z,101639.89
2018-09-09T11:15:09.098Z,101639.98
2018-09-09T11:16:14.703Z,101643.67
2018-09-09T11:17:24.884Z,101646.09
2018-09-09T11:18:34.046Z,101641.77
2018-09-09T11:19:39.899Z,101644.75
2018-09-09T11:20:45.746Z,101646.41
2018-09-09T11:21:51.753Z,101644.20
2018-09-09T11:22:57.545Z,101647.05
2018-09-09T11:24:03.011Z,101630.84
2018-09-09T11:25:08.945Z,101629.51
2018-09-09T11:26:14.644Z,101634.58
2018-09-09T11:27:20.492Z,101630.08
2018-09-09T11:28:26.264Z,101631.20
2018-09-09T11:29:31.990Z,101634.42
2018-09-09T11:30:37.449Z,101637.89
2018-09-09T11:31:43.219Z,101625.83
2018-09-09T11:32:49.045Z,101627.33
2018-09-09T11:33:54.709Z,101633.87
2018-09-09T11:35:00.308Z,101629.11
2018-09-09T11:36:06.108Z,101631.16
2018-09-09T11:37:11.889Z,101628.54
2018-09-09T11:38:17.445Z,101640.22
2018-09-09T11:39:23.138Z,101635.81
2018-09-09T11:40:28.816Z,101633.37
2018-09-09T11:41:34.820Z,101633.55
2018-09-09T11:42:40.676Z,101637.20
2018-09-09T11:43:46.602Z,101629.48
2018-09-09T11:44:52.332Z,101621.84
2018-09-09T11:45:58.419Z,101628.83
2018-09-09T11:47:04.258Z,101627.59
2018-09-09T11:48:09.964Z,101629.22
2018-09-09T11:49:15.805Z,101620.50
2018-09-09T11:50:21.601Z,101614.93
2018-09-09T11:51:27.502Z,101625.86
2018-09-09T11:52:33.240Z,101621.10
2018-09-09T11:53:38.745Z,101621.05
2018-09-09T11:54:44.129Z,101611.99
2018-09-09T11:55:50.216Z,101614.13
2018-09-09T11:56:56.016Z,101622.97
2018-09-09T11:58:02.138Z,101616.14
2018-09-09T11:59:07.697Z,101610.40
2018-09-09T12:00:13.689Z,101614.11
2018-09-09T12:01:19.275Z,101610.11
2018-09-09T12:02:24.907Z,101605.13
2018-09-09T12:03:30.643Z,101604.30
2018-09-09T12:04:36.395Z,101599.48
2018-09-09T12:05:42.012Z,101604.33
2018-09-09T12:06:47.729Z,101601.19
2018-09-09T12:07:53.382Z,101601.34
2018-09-09T12:08:58.951Z,101603.42
2018-09-09T12:10:04.641Z,101610.47
2018-09-09T12:11:10.306Z,101605.41
2018-09-09T12:12:15.965Z,101607.60
2018-09-09T12:13:21.392Z,101611.42
2018-09-09T12:14:26.929Z,101611.09
2018-09-09T12:15:32.767Z,101616.97
2018-09-09T12:16:41.880Z,101612.94
2018-09-09T12:17:47.837Z,101613.72
2018-09-09T12:18:53.269Z,101608.43
2018-09-09T12:19:58.780Z,101611.33
2018-09-09T12:21:04.578Z,101607.00
2018-09-09T12:22:10.011Z,101608.86
2018-09-09T12:23:15.490Z,101612.74
2018-09-09T12:24:20.925Z,101613.05
2018-09-09T12:25:26.433Z,101607.02
2018-09-09T12:26:31.893Z,101608.28
2018-09-09T12:27:37.354Z,101612.84
2018-09-09T12:28:42.819Z,101607.55
2018-09-09T12:29:48.332Z,101610.36